Time;durP1;ratioP1;P1;durP2;ratioP2;P2;SDS_P1;SDS_P2;PMS_P1;PMS_P2;Temp;Humidity;BMP_temperature;BMP_pressure;BME280_temperature;BME280_humidity;BME280_pressure;Samples;Min_cycle;Max_cycle;Signal;HPM_P1;HPM_P2
2022/03/09 00:00:31;;;;;;;51.20;22.63;;;2.80;24.10;;;;;;5033842;28;20268;-76
2022/03/09 00:02:57;;;;;;;49.90;22.20;;;2.70;25.40;;;;;;5030670;28;20310;-76
2022/03/09 00:05:22;;;;;;;49.10;22.30;;;2.90;24.80;;;;;;5029481;28;21115;-76
2022/03/09 00:07:48;;;;;;;62.43;23.73;;;3.30;24.20;;;;;;5027406;28;20177;-76
2022/03/09 00:10:14;;;;;;;54.73;21.17;;;3.60;23.70;;;;;;5025142;28;20188;-77
2022/03/09 00:12:39;;;;;;;54.27;20.47;;;3.70;23.70;;;;;;5028381;28;20661;-77
2022/03/09 00:15:05;;;;;;;51.00;20.30;;;2.60;24.80;;;;;;5025461;28;20484;-77
2022/03/09 00:17:31;;;;;;;46.78;18.75;;;2.70;24.50;;;;;;5031127;28;20184;-77
2022/03/09 00:19:57;;;;;;;40.27;19.47;;;2.40;24.80;;;;;;5022379;28;20216;-76
2022/03/09 00:22:22;;;;;;;40.67;20.80;;;2.80;24.80;;;;;;5032508;28;20556;-76
2022/03/09 00:24:48;;;;;;;42.73;19.83;;;3.00;24.20;;;;;;5033439;28;20207;-76
2022/03/09 00:27:14;;;;;;;38.27;19.17;;;3.10;24.70;;;;;;5057389;28;20188;-75
2022/03/09 00:29:39;;;;;;;40.90;18.83;;;3.00;24.00;;;;;;5049466;28;20208;-75
2022/03/09 00:32:06;;;;;;;44.70;20.47;;;3.20;24.00;;;;;;5052541;28;20225;-76
2022/03/09 00:34:33;;;;;;;42.40;18.92;;;3.00;23.60;;;;;;5032551;28;20307;-76
2022/03/09 00:36:58;;;;;;;46.25;19.38;;;3.30;24.70;;;;;;5033561;28;20260;-77
2022/03/09 00:39:24;;;;;;;41.80;19.03;;;3.40;23.20;;;;;;5026110;28;20627;-76
2022/03/09 00:41:50;;;;;;;41.97;19.50;;;3.70;22.80;;;;;;5025689;28;20177;-76
2022/03/09 00:44:16;;;;;;;43.70;19.60;;;3.70;23.00;;;;;;5025961;28;20200;-76
2022/03/09 00:46:41;;;;;;;48.20;20.30;;;3.50;24.10;;;;;;5029341;28;20172;-76
2022/03/09 00:49:07;;;;;;;43.47;20.00;;;3.70;23.10;;;;;;5021794;28;20551;-76
2022/03/09 00:51:33;;;;;;;43.13;19.03;;;3.60;23.40;;;;;;5029568;28;20239;-77
2022/03/09 00:53:58;;;;;;;41.53;19.30;;;3.60;23.00;;;;;;5027222;28;20208;-76
2022/03/09 00:56:24;;;;;;;44.17;18.83;;;3.80;22.60;;;;;;5030357;28;20556;-76
2022/03/09 00:58:49;;;;;;;50.13;20.40;;;3.70;23.10;;;;;;5025075;28;20220;-76
2022/03/09 01:01:15;;;;;;;50.13;21.53;;;3.60;23.00;;;;;;5026644;28;20172;-77
2022/03/09 01:03:42;;;;;;;42.23;19.70;;;3.60;24.00;;;;;;5025913;28;20197;-76
2022/03/09 01:06:07;;;;;;;51.30;19.23;;;3.40;24.00;;;;;;5028321;28;20177;-76
2022/03/09 01:08:33;;;;;;;55.67;24.93;;;3.30;24.30;;;;;;5021348;28;20279;-76
2022/03/09 01:10:59;;;;;;;59.70;26.13;;;3.50;23.50;;;;;;5021178;28;20213;-77
2022/03/09 01:13:24;;;;;;;59.63;24.97;;;3.60;23.70;;;;;;5021811;28;20232;-76
2022/03/09 01:15:50;;;;;;;58.10;25.20;;;3.50;24.40;;;;;;5028443;28;20478;-76
2022/03/09 01:18:16;;;;;;;61.17;24.60;;;3.40;24.40;;;;;;5025773;28;20678;-76
2022/03/09 01:20:42;;;;;;;51.90;23.83;;;3.30;24.20;;;;;;5020546;28;20224;-77
2022/03/09 01:23:08;;;;;;;53.77;23.97;;;3.10;24.40;;;;;;5027202;28;20890;-76
2022/03/09 01:25:34;;;;;;;54.38;23.63;;;3.20;24.70;;;;;;5024017;28;20192;-76
2022/03/09 01:27:59;;;;;;;55.57;24.30;;;3.30;23.80;;;;;;5023317;28;20177;-76
2022/03/09 01:30:25;;;;;;;49.33;22.00;;;3.20;24.30;;;;;;5029264;28;20169;-76
2022/03/09 01:32:51;;;;;;;47.37;20.87;;;3.40;24.10;;;;;;5032302;28;20180;-76
2022/03/09 01:35:18;;;;;;;41.58;19.67;;;3.60;23.10;;;;;;5022130;28;20232;-76
2022/03/09 01:37:45;;;;;;;42.65;20.55;;;3.80;22.90;;;;;;5028820;28;20462;-76
2022/03/09 01:40:12;;;;;;;51.10;20.80;;;3.80;22.90;;;;;;5022362;28;20173;-76
2022/03/09 01:42:37;;;;;;;48.80;20.67;;;3.80;22.50;;;;;;5022848;28;20638;-76
2022/03/09 01:45:05;;;;;;;43.13;18.77;;;3.80;22.70;;;;;;5021888;28;20208;-76
2022/03/09 01:47:31;;;;;;;39.30;18.55;;;3.70;22.90;;;;;;5022840;28;20187;-76
2022/03/09 01:49:57;;;;;;;39.30;17.63;;;3.80;22.60;;;;;;5016495;28;20209;-76
2022/03/09 01:52:24;;;;;;;40.50;18.50;;;3.90;22.40;;;;;;5022305;28;20492;-76
2022/03/09 01:54:52;;;;;;;45.42;18.85;;;3.80;22.80;;;;;;5022964;28;20673;-76
2022/03/09 01:57:19;;;;;;;40.78;17.98;;;3.60;23.10;;;;;;5021105;28;20180;-76
2022/03/09 01:59:51;;;;;;;40.88;18.05;;;3.10;23.80;;;;;;5030751;28;20584;-76
2022/03/09 02:02:17;;;;;;;38.78;18.70;;;3.20;24.20;;;;;;5031514;28;20177;-76
2022/03/09 02:04:44;;;;;;;42.22;18.45;;;2.70;24.40;;;;;;5030003;28;20200;-76
2022/03/09 02:34:05;;;;;;;35.50;17.20;;;2.90;24.20;;;;;;5019713;28;20230;-76
2022/03/09 02:36:31;;;;;;;43.40;19.13;;;2.60;24.90;;;;;;5024420;28;20657;-76
2022/03/09 02:38:58;;;;;;;40.37;18.40;;;2.60;24.90;;;;;;5026359;28;20199;-76
2022/03/09 02:41:24;;;;;;;37.83;18.95;;;2.60;24.80;;;;;;5022996;28;20263;-76
2022/03/09 02:43:49;;;;;;;42.97;18.92;;;2.60;24.40;;;;;;5028164;28;20236;-77
2022/03/09 02:46:15;;;;;;;42.33;19.20;;;2.50;24.80;;;;;;5025669;28;20634;-76
2022/03/09 02:48:41;;;;;;;45.53;18.20;;;2.80;24.10;;;;;;5029276;28;20204;-76
2022/03/09 02:51:06;;;;;;;43.63;19.07;;;2.90;24.20;;;;;;5027738;28;20256;-76
2022/03/09 02:53:32;;;;;;;41.83;17.93;;;2.80;24.60;;;;;;5022542;28;20212;-76
2022/03/09 02:55:58;;;;;;;40.73;19.53;;;2.80;24.50;;;;;;5028086;28;20181;-76
2022/03/09 02:58:25;;;;;;;38.67;17.60;;;2.90;24.70;;;;;;5024404;28;20212;-76
2022/03/09 03:00:50;;;;;;;35.50;16.98;;;2.80;24.70;;;;;;5022335;28;20176;-76
2022/03/09 03:03:16;;;;;;;31.10;16.47;;;2.70;24.50;;;;;;5031029;28;20198;-76
2022/03/09 03:05:42;;;;;;;37.63;16.70;;;3.00;23.90;;;;;;5025144;28;20264;-76
2022/03/09 03:08:07;;;;;;;29.17;15.43;;;3.00;24.30;;;;;;5028280;28;20549;-76
2022/03/09 03:10:33;;;;;;;48.23;17.80;;;2.90;25.00;;;;;;5023123;28;20208;-77
2022/03/09 03:12:59;;;;;;;43.40;18.77;;;2.90;24.90;;;;;;5029442;28;20176;-76
2022/03/09 03:15:24;;;;;;;46.53;19.07;;;2.70;24.60;;;;;;5018582;28;20209;-76
2022/03/09 03:17:50;;;;;;;49.20;20.03;;;2.80;24.90;;;;;;5019195;28;20189;-76
2022/03/09 03:20:15;;;;;;;43.80;20.17;;;2.60;24.90;;;;;;5026581;28;20211;-75
2022/03/09 03:22:41;;;;;;;42.50;19.77;;;2.20;25.10;;;;;;5028623;28;20701;-76
2022/03/09 03:25:07;;;;;;;39.23;18.40;;;2.00;25.50;;;;;;5028559;28;20212;-76
2022/03/09 03:27:33;;;;;;;38.67;18.77;;;2.40;25.30;;;;;;5029636;28;20193;-76
2022/03/09 03:29:58;;;;;;;39.60;19.03;;;2.40;25.50;;;;;;5019082;28;20448;-76
2022/03/09 03:32:24;;;;;;;39.00;18.27;;;2.30;25.80;;;;;;5020795;28;20605;-76
2022/03/09 03:34:49;;;;;;;39.53;18.70;;;2.20;25.10;;;;;;5020212;28;20223;-76
2022/03/09 03:37:15;;;;;;;40.67;19.97;;;1.50;26.20;;;;;;5030354;28;20677;-76
2022/03/09 03:39:41;;;;;;;45.33;19.50;;;1.50;26.30;;;;;;5024137;28;20209;-76
2022/03/09 03:42:06;;;;;;;42.33;19.70;;;1.70;26.00;;;;;;5022439;28;20180;-76
2022/03/09 03:44:32;;;;;;;47.77;19.60;;;2.10;26.10;;;;;;5022627;28;20208;-76
2022/03/09 03:46:58;;;;;;;43.70;20.30;;;2.10;26.40;;;;;;5030465;28;20435;-76
2022/03/09 03:49:24;;;;;;;41.80;20.47;;;2.10;26.30;;;;;;5021730;28;20530;-76
2022/03/09 03:51:49;;;;;;;35.43;18.50;;;1.20;25.30;;;;;;5028648;28;20204;-77
2022/03/09 03:54:15;;;;;;;37.57;17.97;;;2.00;26.00;;;;;;5016689;28;20431;-76
2022/03/09 03:56:41;;;;;;;44.83;18.43;;;2.00;26.10;;;;;;5029838;28;20181;-76
2022/03/09 03:59:06;;;;;;;43.67;20.37;;;2.20;25.70;;;;;;5019172;28;20213;-76
2022/03/09 04:01:32;;;;;;;39.00;19.90;;;2.10;26.10;;;;;;5029915;28;20617;-76
2022/03/09 04:03:57;;;;;;;37.90;18.07;;;2.10;26.30;;;;;;5019397;28;20210;-76
2022/03/09 04:06:23;;;;;;;50.33;19.43;;;1.70;26.60;;;;;;5021781;28;20180;-76
2022/03/09 04:08:49;;;;;;;38.33;18.90;;;1.70;27.10;;;;;;5019776;28;20197;-76
2022/03/09 04:11:14;;;;;;;43.83;18.93;;;1.80;27.20;;;;;;5027840;28;20182;-76
2022/03/09 04:13:42;;;;;;;41.03;18.50;;;1.90;26.30;;;;;;5023799;28;20646;-76
2022/03/09 04:16:08;;;;;;;36.90;17.50;;;2.30;25.90;;;;;;5021235;28;20188;-76
2022/03/09 04:18:34;;;;;;;41.87;18.47;;;3.30;27.70;;;;;;5012841;28;20209;-76
2022/03/09 04:21:00;;;;;;;48.60;18.95;;;2.10;26.40;;;;;;5033650;28;20507;-76
2022/03/09 04:23:26;;;;;;;40.13;19.33;;;1.90;26.70;;;;;;5033410;28;20192;-76
2022/03/09 04:25:51;;;;;;;37.43;18.77;;;1.80;26.30;;;;;;5024279;28;20219;-76
2022/03/09 04:28:17;;;;;;;48.60;20.10;;;1.90;26.70;;;;;;5027455;28;20212;-76
2022/03/09 04:30:44;;;;;;;41.00;18.97;;;2.00;26.40;;;;;;5029636;28;20188;-76
2022/03/09 04:33:10;;;;;;;41.70;18.73;;;1.80;27.10;;;;;;5031121;28;20185;-76
2022/03/09 04:35:35;;;;;;;41.70;19.40;;;1.80;27.10;;;;;;5024504;28;20199;-76
2022/03/09 04:38:01;;;;;;;51.63;20.33;;;1.70;27.00;;;;;;5023499;28;20426;-76
2022/03/09 04:40:27;;;;;;;38.00;19.80;;;1.80;27.00;;;;;;5025818;28;20642;-76
2022/03/09 04:42:53;;;;;;;41.70;18.37;;;1.80;26.40;;;;;;5030188;28;20432;-77
2022/03/09 04:45:19;;;;;;;39.60;19.20;;;2.00;27.30;;;;;;5021971;28;20460;-76
2022/03/09 04:47:44;;;;;;;42.60;18.33;;;1.60;27.10;;;;;;5027500;28;20180;-76
2022/03/09 04:50:10;;;;;;;41.03;19.40;;;1.50;27.10;;;;;;5017258;28;20728;-76
2022/03/09 04:52:36;;;;;;;40.90;19.60;;;1.90;26.30;;;;;;5021151;28;20236;-76
2022/03/09 04:55:01;;;;;;;42.70;18.47;;;1.90;26.20;;;;;;5019221;28;20188;-76
2022/03/09 04:57:27;;;;;;;41.07;19.13;;;2.10;26.20;;;;;;5024966;28;20180;-76
2022/03/09 04:59:52;;;;;;;43.27;18.80;;;2.00;26.10;;;;;;5031403;28;20212;-76
2022/03/09 05:02:18;;;;;;;35.90;18.23;;;2.00;26.40;;;;;;5025812;28;20693;-76
2022/03/09 05:04:44;;;;;;;41.50;18.53;;;1.80;27.80;;;;;;5033019;28;20201;-76
2022/03/09 05:07:09;;;;;;;45.27;20.10;;;1.80;27.20;;;;;;5021723;28;20181;-76
2022/03/09 05:09:35;;;;;;;47.20;18.77;;;1.80;26.20;;;;;;5025394;28;20193;-76
2022/03/09 05:12:01;;;;;;;37.73;18.83;;;1.80;26.20;;;;;;5023743;28;20176;-76
2022/03/09 05:14:27;;;;;;;47.57;19.43;;;1.70;26.20;;;;;;5032725;28;20176;-77
2022/03/09 05:16:52;;;;;;;43.23;18.83;;;1.60;26.30;;;;;;5024381;28;20178;-76
2022/03/09 05:19:18;;;;;;;36.50;17.83;;;1.70;27.20;;;;;;5028875;28;20482;-76
2022/03/09 05:21:44;;;;;;;41.17;18.90;;;-0.70;24.90;;;;;;5021639;28;20186;-76
2022/03/09 05:24:09;;;;;;;54.70;18.63;;;1.20;26.80;;;;;;5025070;28;20204;-76
2022/03/09 05:26:36;;;;;;;40.80;17.30;;;1.00;26.70;;;;;;5017197;28;20283;-77
2022/03/09 05:29:03;;;;;;;53.40;19.25;;;1.30;27.60;;;;;;5026827;28;20220;-76
2022/03/09 05:31:29;;;;;;;43.72;20.17;;;1.40;26.90;;;;;;5027230;28;20637;-76
2022/03/09 05:33:55;;;;;;;47.10;19.92;;;1.30;26.90;;;;;;5029549;28;20215;-76
2022/03/09 05:36:20;;;;;;;38.43;18.67;;;1.50;27.10;;;;;;5031629;28;20819;-77
2022/03/09 05:38:46;;;;;;;34.87;18.00;;;1.30;26.90;;;;;;5028798;28;20216;-76
2022/03/09 05:41:12;;;;;;;40.90;19.27;;;1.40;27.00;;;;;;5025637;28;20690;-76
2022/03/09 05:43:38;;;;;;;41.33;19.60;;;1.70;26.30;;;;;;5028410;28;20646;-76
2022/03/09 05:46:03;;;;;;;45.60;18.30;;;1.90;26.30;;;;;;5025313;28;20268;-77
2022/03/09 05:48:29;;;;;;;37.03;18.20;;;1.60;26.70;;;;;;5021892;28;20193;-76
2022/03/09 05:50:54;;;;;;;42.50;18.53;;;1.40;26.90;;;;;;5026691;28;20243;-77
2022/03/09 05:53:20;;;;;;;37.30;17.70;;;1.30;27.20;;;;;;5023185;28;20172;-76
2022/03/09 05:55:46;;;;;;;33.57;18.00;;;1.60;26.40;;;;;;5021281;28;20208;-77
2022/03/09 05:58:11;;;;;;;42.57;18.70;;;1.40;26.90;;;;;;5028151;28;20215;-76
2022/03/09 06:00:37;;;;;;;36.03;16.73;;;1.20;26.80;;;;;;5023650;28;20567;-76
2022/03/09 06:03:03;;;;;;;36.27;17.03;;;1.00;27.50;;;;;;5031969;28;20276;-76
2022/03/09 06:05:28;;;;;;;43.30;19.33;;;1.20;27.30;;;;;;5023456;28;20250;-76
2022/03/09 06:07:54;;;;;;;34.63;17.70;;;1.30;26.90;;;;;;5022973;28;20566;-76
2022/03/09 06:10:19;;;;;;;45.90;19.77;;;1.50;27.00;;;;;;5031102;28;20193;-76
2022/03/09 06:12:45;;;;;;;46.63;20.00;;;1.70;26.70;;;;;;5014555;28;20208;-76
2022/03/09 06:15:11;;;;;;;52.27;19.93;;;1.40;26.90;;;;;;5029646;28;20184;-77
2022/03/09 06:17:47;;;;;;;48.93;18.50;;;1.50;27.00;;;;;;5022742;28;20654;-84
2022/03/09 06:20:19;;;;;;;40.35;18.75;;;2.90;26.70;;;;;;5032363;28;20184;-85
2022/03/09 06:22:45;;;;;;;46.60;21.33;;;1.80;26.20;;;;;;5024879;28;20188;-83
2022/03/09 06:25:11;;;;;;;52.13;19.52;;;2.00;27.30;;;;;;5034382;28;20200;-78
2022/03/09 06:27:48;;;;;;;42.67;20.42;;;1.40;27.40;;;;;;5027417;28;20678;-78
2022/03/09 06:30:14;;;;;;;54.70;21.67;;;1.60;27.10;;;;;;5025386;28;20237;-78
2022/03/09 06:32:41;;;;;;;60.30;21.45;;;2.00;25.90;;;;;;5032760;28;20181;-78
2022/03/09 06:35:08;;;;;;;82.03;29.05;;;2.20;25.80;;;;;;5024568;28;20185;-79
2022/03/09 06:37:34;;;;;;;54.72;22.00;;;2.30;25.70;;;;;;5024936;28;20203;-78
2022/03/09 06:40:01;;;;;;;84.93;29.98;;;2.20;26.80;;;;;;5024189;28;20193;-76
2022/03/09 06:42:29;;;;;;;67.28;28.38;;;2.30;26.00;;;;;;5020993;28;20235;-76
2022/03/09 06:44:55;;;;;;;50.45;23.42;;;2.30;26.00;;;;;;5020691;28;20189;-74
2022/03/09 06:47:20;;;;;;;47.10;23.27;;;2.20;26.10;;;;;;5020043;28;20207;-74
2022/03/09 06:49:46;;;;;;;48.47;21.17;;;2.30;26.40;;;;;;5011833;28;20670;-74
2022/03/09 06:52:12;;;;;;;47.87;21.43;;;2.10;26.10;;;;;;5023477;28;20211;-75
2022/03/09 06:54:38;;;;;;;54.25;21.98;;;2.30;26.50;;;;;;5029727;28;20546;-74
2022/03/09 06:57:03;;;;;;;49.17;23.77;;;2.20;26.10;;;;;;5030993;28;20185;-74
2022/03/09 06:59:29;;;;;;;67.93;23.30;;;2.30;25.90;;;;;;5041421;28;20221;-74
2022/03/09 07:01:55;;;;;;;42.87;20.20;;;2.40;25.90;;;;;;5039344;28;20196;-75
2022/03/09 07:04:21;;;;;;;52.40;21.42;;;2.60;26.00;;;;;;5045666;28;20246;-74
2022/03/09 07:06:46;;;;;;;43.20;21.80;;;2.20;25.80;;;;;;5023449;28;20721;-74
2022/03/09 07:09:12;;;;;;;47.20;21.50;;;2.30;26.00;;;;;;5018260;28;20291;-74
2022/03/09 07:11:38;;;;;;;44.10;20.20;;;2.50;25.70;;;;;;5015057;28;20728;-74
2022/03/09 07:14:04;;;;;;;54.28;21.02;;;2.30;25.60;;;;;;5024843;28;20184;-74
2022/03/09 07:16:30;;;;;;;59.87;21.60;;;2.30;25.70;;;;;;5022217;28;20188;-74
2022/03/09 07:18:56;;;;;;;49.13;22.07;;;2.50;25.70;;;;;;5028456;28;20204;-74
2022/03/09 07:21:22;;;;;;;41.42;20.40;;;2.60;25.50;;;;;;5024833;28;20172;-74
2022/03/09 07:23:47;;;;;;;46.63;20.40;;;2.50;25.30;;;;;;5028875;28;20291;-74
2022/03/09 07:26:13;;;;;;;42.03;19.27;;;2.40;25.50;;;;;;5029841;28;20180;-74
2022/03/09 07:28:39;;;;;;;44.20;20.30;;;2.20;26.00;;;;;;5022626;28;20492;-74
2022/03/09 07:31:04;;;;;;;49.43;20.60;;;2.00;26.10;;;;;;5028062;28;20216;-74
2022/03/09 07:33:30;;;;;;;73.37;23.23;;;2.20;26.30;;;;;;5020017;28;20542;-76
2022/03/09 07:35:56;;;;;;;56.13;21.87;;;2.50;25.50;;;;;;5023939;28;20185;-76
2022/03/09 07:38:22;;;;;;;48.33;21.80;;;2.80;25.20;;;;;;5030570;28;20196;-74
2022/03/09 07:40:48;;;;;;;45.00;20.55;;;3.10;24.70;;;;;;5031036;28;20183;-74
2022/03/09 07:43:14;;;;;;;53.15;20.95;;;3.30;24.40;;;;;;5021121;28;20208;-74
2022/03/09 07:45:40;;;;;;;47.83;21.80;;;3.30;24.00;;;;;;5025442;28;20315;-74
2022/03/09 07:48:06;;;;;;;48.87;21.57;;;3.20;24.60;;;;;;5024186;28;20211;-74
2022/03/09 07:50:31;;;;;;;46.70;20.43;;;3.20;24.70;;;;;;5022627;28;20176;-79
2022/03/09 07:52:57;;;;;;;44.00;20.90;;;3.20;24.90;;;;;;5030194;28;20428;-74
2022/03/09 07:55:23;;;;;;;45.43;20.80;;;3.30;24.70;;;;;;5019417;28;20268;-77
2022/03/09 07:57:48;;;;;;;55.33;22.10;;;3.60;24.30;;;;;;5025222;28;20259;-82
2022/03/09 08:00:14;;;;;;;46.80;22.13;;;4.10;23.80;;;;;;5028584;28;20187;-77
2022/03/09 08:02:41;;;;;;;47.17;21.17;;;3.90;23.70;;;;;;5025171;28;20235;-79
2022/03/09 08:05:07;;;;;;;47.25;22.27;;;3.80;24.00;;;;;;5023954;28;20217;-78
2022/03/09 08:07:33;;;;;;;47.55;21.38;;;4.00;24.20;;;;;;5039751;28;20196;-81
2022/03/09 08:09:59;;;;;;;42.65;20.83;;;4.10;23.60;;;;;;5038556;28;20287;-80
2022/03/09 08:12:27;;;;;;;45.53;21.10;;;4.20;24.00;;;;;;5037896;28;20169;-76
2022/03/09 08:14:52;;;;;;;44.25;20.85;;;3.10;25.00;;;;;;5035593;28;20185;-80
2022/03/09 08:17:19;;;;;;;42.20;21.00;;;3.10;25.30;;;;;;5037383;28;20180;-76
2022/03/09 08:19:45;;;;;;;47.70;21.60;;;3.10;25.20;;;;;;5031512;28;20869;-75
2022/03/09 08:22:10;;;;;;;55.33;21.30;;;3.40;25.00;;;;;;5026879;28;20272;-79
2022/03/09 08:24:36;;;;;;;47.63;21.43;;;3.70;24.50;;;;;;5032661;28;20980;-77
2022/03/09 08:27:03;;;;;;;58.20;22.03;;;4.00;23.50;;;;;;5023066;28;20184;-78
2022/03/09 08:29:29;;;;;;;62.28;23.13;;;3.70;24.60;;;;;;5036847;28;20747;-78
2022/03/09 08:31:55;;;;;;;50.87;20.80;;;3.60;24.50;;;;;;5030968;28;20215;-76
2022/03/09 08:34:20;;;;;;;46.75;20.92;;;3.50;24.70;;;;;;5024949;28;20650;-76
2022/03/09 08:36:46;;;;;;;45.40;21.30;;;3.50;25.20;;;;;;5034224;28;20185;-77
2022/03/09 08:39:12;;;;;;;46.70;21.30;;;3.60;25.00;;;;;;5028406;28;20691;-77
2022/03/09 08:41:37;;;;;;;42.80;21.33;;;3.70;25.00;;;;;;5022854;28;20212;-76
2022/03/09 08:44:03;;;;;;;53.17;21.97;;;4.00;24.50;;;;;;5026562;28;20563;-76
2022/03/09 08:46:29;;;;;;;50.92;23.10;;;3.90;24.60;;;;;;5024318;28;20650;-76
2022/03/09 08:48:55;;;;;;;40.30;21.80;;;3.70;25.10;;;;;;5026564;28;20204;-76
2022/03/09 08:51:21;;;;;;;50.43;22.03;;;3.90;25.20;;;;;;5025400;28;20604;-76
2022/03/09 08:53:48;;;;;;;40.95;21.20;;;4.10;24.20;;;;;;5030356;28;20432;-77
2022/03/09 08:56:14;;;;;;;45.75;21.67;;;4.50;23.90;;;;;;5022109;28;20268;-77
2022/03/09 08:58:39;;;;;;;40.08;19.77;;;4.10;24.00;;;;;;5022083;28;20629;-77
2022/03/09 09:01:06;;;;;;;38.63;20.07;;;4.00;24.70;;;;;;5019249;28;20185;-77
2022/03/09 09:03:31;;;;;;;40.53;20.40;;;4.80;23.50;;;;;;5024779;28;20514;-77
2022/03/09 09:05:57;;;;;;;43.60;21.10;;;5.50;22.90;;;;;;5025812;28;20263;-76
2022/03/09 09:08:23;;;;;;;41.67;20.70;;;5.30;22.80;;;;;;5027463;28;20439;-77
2022/03/09 09:10:49;;;;;;;54.77;22.23;;;5.40;22.50;;;;;;5026344;28;20238;-76
2022/03/09 09:13:15;;;;;;;40.93;20.30;;;5.40;23.70;;;;;;5023936;28;20215;-76
2022/03/09 09:15:41;;;;;;;80.75;21.02;;;5.40;23.10;;;;;;5024873;28;20173;-76
2022/03/09 09:18:07;;;;;;;40.70;20.13;;;5.50;22.70;;;;;;5024856;28;20231;-76
2022/03/09 09:20:34;;;;;;;47.13;20.85;;;5.60;23.00;;;;;;5024927;28;20185;-76
2022/03/09 09:23:00;;;;;;;49.35;22.05;;;5.30;23.10;;;;;;5024884;28;20204;-76
2022/03/09 09:25:27;;;;;;;40.63;21.40;;;5.20;23.70;;;;;;5027183;28;20181;-76
2022/03/09 09:27:54;;;;;;;47.78;22.90;;;5.20;23.80;;;;;;5019969;28;20247;-76
2022/03/09 09:30:21;;;;;;;44.45;21.23;;;5.30;23.70;;;;;;5019556;28;20173;-76
2022/03/09 09:32:48;;;;;;;43.50;21.27;;;5.50;23.30;;;;;;5021782;28;20253;-76
2022/03/09 09:35:14;;;;;;;45.65;20.77;;;5.70;23.30;;;;;;5029090;28;20200;-76
2022/03/09 09:37:42;;;;;;;47.33;21.10;;;5.60;23.50;;;;;;5019673;28;20195;-76
2022/03/09 09:40:09;;;;;;;42.20;21.00;;;5.80;23.80;;;;;;5023041;28;20204;-76
2022/03/09 09:42:36;;;;;;;38.65;20.83;;;6.20;22.70;;;;;;5018298;28;20268;-76
2022/03/09 09:45:04;;;;;;;49.25;20.73;;;6.30;21.60;;;;;;5022360;28;20212;-76
2022/03/09 09:47:31;;;;;;;46.63;21.35;;;7.00;21.40;;;;;;5030913;28;20184;-76
2022/03/09 09:49:57;;;;;;;37.50;19.88;;;6.90;20.90;;;;;;5024159;28;20288;-76
2022/03/09 09:52:34;;;;;;;38.38;19.30;;;6.60;21.70;;;;;;5024933;28;20638;-76
2022/03/09 09:55:02;;;;;;;36.20;19.98;;;6.20;21.90;;;;;;5016483;28;20875;-76
2022/03/09 09:57:29;;;;;;;41.78;21.40;;;6.40;21.30;;;;;;5020604;28;20788;-76
2022/03/09 09:59:55;;;;;;;45.10;22.08;;;6.80;21.90;;;;;;5020753;28;20225;-76
2022/03/09 10:02:21;;;;;;;42.67;22.67;;;7.10;21.20;;;;;;5023707;28;20189;-76
2022/03/09 10:04:47;;;;;;;42.60;20.30;;;6.90;21.40;;;;;;5024259;28;20266;-76
2022/03/09 10:07:13;;;;;;;42.42;22.17;;;7.10;21.00;;;;;;5022555;28;20212;-76
2022/03/09 10:09:43;;;;;;;42.30;21.38;;;7.00;20.70;;;;;;5024896;28;20208;-76
2022/03/09 10:12:10;;;;;;;43.22;19.92;;;7.00;20.70;;;;;;5023469;28;20211;-76
2022/03/09 10:14:43;;;;;;;39.38;18.70;;;6.90;20.30;;;;;;5024780;28;20272;-76
2022/03/09 10:17:15;;;;;;;40.97;19.85;;;7.60;19.70;;;;;;5016161;28;20254;-77
2022/03/09 10:19:52;;;;;;;44.47;20.60;;;7.80;18.80;;;;;;5020594;28;20298;-77
2022/03/09 10:22:23;;;;;;;47.97;21.63;;;8.40;18.50;;;;;;5028823;28;20194;-77
2022/03/09 10:24:49;;;;;;;35.45;19.35;;;8.90;17.10;;;;;;5020339;28;20200;-77
2022/03/09 10:27:35;;;;;;;41.17;19.65;;;9.20;17.00;;;;;;5020920;28;20185;-77
2022/03/09 10:30:03;;;;;;;36.72;19.75;;;9.30;16.30;;;;;;5023579;28;20712;-77
2022/03/09 10:32:49;;;;;;;37.00;20.33;;;8.60;17.10;;;;;;5022967;28;20189;-77
2022/03/09 10:35:37;;;;;;;38.10;20.40;;;9.10;17.00;;;;;;5032069;28;20184;-77
2022/03/09 10:38:24;;;;;;;34.37;20.07;;;9.50;16.30;;;;;;5026032;28;20271;-77
2022/03/09 10:40:54;;;;;;;40.58;19.23;;;10.10;14.60;;;;;;5023703;28;20434;-77
2022/03/09 10:43:28;;;;;;;38.43;19.73;;;11.20;13.50;;;;;;5022265;28;20172;-77
2022/03/09 10:46:09;;;;;;;39.67;20.83;;;11.20;12.90;;;;;;5012820;28;20451;-77
2022/03/09 10:48:57;;;;;;;39.57;20.27;;;11.00;14.70;;;;;;5018708;28;20454;-77
2022/03/09 10:51:43;;;;;;;42.43;20.57;;;11.80;13.10;;;;;;5020237;28;20471;-77
2022/03/09 10:54:19;;;;;;;36.73;20.40;;;11.70;12.00;;;;;;5020521;28;20892;-77
2022/03/09 10:56:45;;;;;;;44.13;22.60;;;12.00;13.30;;;;;;5021168;28;20434;-77
2022/03/09 10:59:20;;;;;;;40.80;21.70;;;13.20;13.30;;;;;;5023498;28;20450;-77
2022/03/09 11:02:08;;;;;;;37.10;21.10;;;13.60;10.50;;;;;;5021291;28;20437;-77
2022/03/09 11:04:35;;;;;;;36.47;20.67;;;13.60;10.40;;;;;;5020478;28;20911;-78
2022/03/09 11:07:02;;;;;;;37.90;20.40;;;14.20;9.70;;;;;;5015295;28;20431;-77
2022/03/09 11:09:28;;;;;;;41.70;20.90;;;15.00;10.00;;;;;;5023548;28;20491;-78
2022/03/09 11:11:55;;;;;;;40.23;22.47;;;15.30;8.90;;;;;;5030019;28;20424;-78
2022/03/09 11:14:26;;;;;;;36.90;22.10;;;15.50;7.60;;;;;;5020245;28;20484;-78
2022/03/09 11:16:53;;;;;;;45.50;22.00;;;14.80;8.30;;;;;;5028237;28;20426;-78
2022/03/09 11:19:20;;;;;;;33.47;21.77;;;15.20;8.90;;;;;;5025142;28;20482;-78
2022/03/09 11:21:47;;;;;;;35.90;21.20;;;16.00;7.40;;;;;;5023174;28;20570;-78
2022/03/09 11:24:14;;;;;;;39.00;22.30;;;15.30;7.10;;;;;;5016032;28;20451;-78
2022/03/09 11:26:45;;;;;;;38.40;22.80;;;15.50;7.60;;;;;;5023485;28;20421;-78
2022/03/09 11:29:12;;;;;;;36.80;21.83;;;15.80;8.30;;;;;;5020431;28;20443;-78
2022/03/09 11:31:50;;;;;;;41.50;23.33;;;15.50;7.60;;;;;;5021254;28;20482;-78
2022/03/09 11:34:38;;;;;;;34.83;22.27;;;16.40;7.70;;;;;;5016428;28;20429;-78
2022/03/09 11:37:08;;;;;;;33.07;21.07;;;17.00;6.20;;;;;;5025852;28;20425;-78
2022/03/09 11:39:37;;;;;;;46.43;23.40;;;18.20;5.60;;;;;;5025314;28;20431;-78
2022/03/09 11:42:21;;;;;;;39.83;22.50;;;18.60;5.90;;;;;;5018842;28;20429;-78
2022/03/09 11:44:54;;;;;;;30.97;20.90;;;19.00;4.40;;;;;;5017429;28;20455;-78
2022/03/09 11:47:21;;;;;;;33.00;20.27;;;18.10;3.50;;;;;;5028836;28;21014;-78
2022/03/09 11:49:49;;;;;;;35.50;20.30;;;18.00;4.10;;;;;;5030760;28;20451;-78
2022/03/09 11:52:19;;;;;;;36.20;19.90;;;18.40;4.00;;;;;;5029190;28;20446;-78
2022/03/09 11:54:59;;;;;;;34.33;20.73;;;19.70;3.80;;;;;;5038147;28;20939;-78
2022/03/09 11:57:47;;;;;;;29.20;19.87;;;20.40;1.80;;;;;;5029768;28;20423;-78
2022/03/09 12:00:14;;;;;;;29.73;19.57;;;18.70;2.60;;;;;;5037625;28;20883;-78
2022/03/09 12:02:45;;;;;;;29.93;19.50;;;17.70;4.50;;;;;;5032141;28;20424;-78
2022/03/09 12:05:22;;;;;;;41.43;20.73;;;18.20;4.10;;;;;;5025929;28;20450;-78
2022/03/09 12:07:48;;;;;;;32.90;20.70;;;19.20;2.80;;;;;;5023886;28;20423;-78
2022/03/09 12:10:14;;;;;;;29.33;19.80;;;20.50;1.70;;;;;;5035843;28;20472;-78
2022/03/09 12:13:18;;;;;;;28.63;19.97;;;21.30;1.50;;;;;;5025908;28;21063;-78
2022/03/09 12:16:05;;;;;;;35.07;20.00;;;20.00;4.00;;;;;;5030201;28;20938;-78
2022/03/09 12:18:40;;;;;;;33.90;20.10;;;20.20;1.80;;;;;;5020941;28;20451;-78
2022/03/09 12:21:07;;;;;;;30.70;20.30;;;20.80;2.40;;;;;;5029346;28;20422;-78
2022/03/09 12:23:35;;;;;;;33.63;20.80;;;21.30;1.40;;;;;;5029089;28;20427;-78
2022/03/09 12:26:01;;;;;;;28.47;19.20;;;21.30;1.30;;;;;;5036809;28;20419;-78
2022/03/09 12:28:34;;;;;;;28.50;19.73;;;21.50;1.50;;;;;;5036265;28;20443;-78
2022/03/09 12:31:02;;;;;;;33.93;20.80;;;20.80;1.00;;;;;;5030875;28;20481;-78
2022/03/09 12:33:34;;;;;;;34.07;19.97;;;20.10;1.00;;;;;;5017784;28;20474;-78
2022/03/09 12:36:09;;;;;;;30.67;19.03;;;19.80;2.00;;;;;;5023992;28;20416;-78
2022/03/09 12:38:43;;;;;;;30.77;20.10;;;19.80;1.00;;;;;;5025605;28;20438;-78
2022/03/09 12:41:27;;;;;;;30.07;18.87;;;18.60;1.50;;;;;;5018151;28;20426;-78
2022/03/09 12:44:02;;;;;;;35.77;19.63;;;20.00;1.00;;;;;;5029069;28;20453;-78
2022/03/09 12:46:29;;;;;;;30.70;17.73;;;19.90;1.00;;;;;;5019899;28;20517;-78
2022/03/09 12:49:05;;;;;;;29.67;18.17;;;20.90;1.00;;;;;;5028341;28;20797;-78
2022/03/09 12:51:32;;;;;;;30.37;19.10;;;22.50;1.00;;;;;;5027181;28;20489;-79
2022/03/09 12:53:58;;;;;;;31.93;18.60;;;22.80;1.00;;;;;;5024675;28;20432;-78
2022/03/09 12:56:25;;;;;;;26.30;18.63;;;23.40;1.00;;;;;;5023871;28;20420;-78
2022/03/09 12:58:52;;;;;;;24.03;16.30;;;22.80;1.00;;;;;;5031119;28;20213;-78
2022/03/09 13:01:18;;;;;;;26.97;17.03;;;21.20;1.00;;;;;;5021752;28;20427;-78
2022/03/09 13:03:45;;;;;;;27.47;17.80;;;19.70;1.00;;;;;;5026120;28;20933;-78